Decoded Metar for CYBK (BAKER LAKE in NU, CANADA) (IATA:YBK) | Meteo·Mobile Aviation Weather
aviador You're here:

CYBK Decoded Metar

BAKER LAKE in NU, CANADA
Report Time2019-07-21 18:00:00
UTC Time2019-07-21 18:31:59
Flight Rules vfr VFR
Wind160° at 04 kt
W.Decomp.*RWY 16: 4.0 kt HW 0.2 kt RCW
Visibility9999 m
Phenomena:N/A
Clouds:Scattered 110 Hf
Broken 130 Hf
Broken 150 Hf
Expected CloudBase > 3,200 ft AGL from Temp-Dew spread
Ceiling13,000 ft
Temp14°C (ISA -1)
Dew Point06°C (59% RH)
AAT11.7°C
QNH1016 hPa
Density Alt-20 ft
Elevation59 ft
Report Wrong Elevation
Raw Report
CYBK 211800Z 16004KT 20SM SCT110 BKN130 BKN150 14/06 A3000 RMK
AC3AC3AC1 SLP162=

Extra information for CYBK:More info

Metar Taf Metar & Taf Last 4 Metars F.Rules Stats Wind Profile Meteogram Temp Stats Airport Information Weather charts Add Link Nearby VenuesMetar ALERT Operation Metar Decoded Social comments